createdAt,value
2022-12-04T02:27:41.402Z,12.48
2022-12-04T02:30:11.721Z,13.75
2022-12-04T02:32:51.049Z,10.40
2022-12-04T02:35:33.092Z,10.60
2022-12-04T02:38:38.351Z,11.20
2022-12-04T02:41:10.927Z,9.80
2022-12-04T02:43:46.074Z,11.73
2022-12-04T02:46:25.266Z,11.65
2022-12-04T02:48:54.252Z,8.65
2022-12-04T02:51:24.696Z,8.45
2022-12-04T02:53:56.827Z,9.70
2022-12-04T02:56:28.387Z,9.75
2022-12-04T02:58:59.370Z,9.32
2022-12-04T03:01:36.163Z,9.68
2022-12-04T03:04:15.592Z,10.23
2022-12-04T03:06:45.595Z,9.52
2022-12-04T03:09:38.757Z,9.10
2022-12-04T03:12:08.551Z,8.65
2022-12-04T03:14:39.767Z,9.13
2022-12-04T03:17:12.720Z,9.52
2022-12-04T03:19:48.866Z,10.05
2022-12-04T03:22:18.761Z,11.38
2022-12-04T03:24:53.940Z,10.60
2022-12-04T03:27:40.748Z,10.73
2022-12-04T03:30:14.348Z,11.63
2022-12-04T03:32:50.715Z,10.90
2022-12-04T03:35:29.445Z,8.82
2022-12-04T03:38:22.199Z,10.82
2022-12-04T03:40:59.295Z,10.88
2022-12-04T03:43:49.976Z,10.02
2022-12-04T03:46:40.238Z,7.53
2022-12-04T03:49:43.504Z,11.20
2022-12-04T03:52:24.801Z,9.95
2022-12-04T03:55:14.262Z,8.32
2022-12-04T03:57:44.665Z,9.88
2022-12-04T04:00:23.233Z,9.15
2022-12-04T04:03:11.363Z,8.25
2022-12-04T04:05:43.888Z,8.27
2022-12-04T04:08:26.269Z,9.30
2022-12-04T04:10:57.592Z,9.70
2022-12-04T04:13:56.397Z,10.57
2022-12-04T04:16:46.352Z,10.15
2022-12-04T04:19:35.180Z,7.93
2022-12-04T04:22:23.199Z,9.75
2022-12-04T04:24:57.727Z,10.88
2022-12-04T04:27:24.216Z,8.95
2022-12-04T04:29:52.769Z,10.90
2022-12-04T04:32:36.919Z,9.57
2022-12-04T04:35:13.680Z,11.05
2022-12-04T04:37:55.641Z,12.70
2022-12-04T04:40:29.196Z,10.00
2022-12-04T04:43:23.182Z,12.30
2022-12-04T04:46:08.004Z,10.57
2022-12-04T04:48:46.407Z,9.05
2022-12-04T04:51:13.640Z,12.00
2022-12-04T04:53:46.031Z,14.55
2022-12-04T04:56:12.810Z,13.93
2022-12-04T04:58:39.402Z,11.15
2022-12-04T05:01:11.115Z,10.45
2022-12-04T05:03:37.850Z,11.18
2022-12-04T05:06:04.379Z,10.80
2022-12-04T05:08:30.859Z,13.70
2022-12-04T05:10:57.394Z,9.57
2022-12-04T05:13:23.971Z,10.40
2022-12-04T05:16:02.857Z,11.95
2022-12-04T05:18:30.363Z,12.00
2022-12-04T05:20:57.462Z,9.38
2022-12-04T05:23:24.625Z,10.77
2022-12-04T05:25:51.253Z,13.07
2022-12-04T05:28:17.723Z,10.40
2022-12-04T05:30:44.244Z,12.70
2022-12-04T05:33:10.737Z,12.50
2022-12-04T05:35:37.223Z,11.63
2022-12-04T05:38:03.797Z,9.80
2022-12-04T05:40:30.295Z,13.18
2022-12-04T05:42:57.458Z,12.80
2022-12-04T05:45:24.004Z,15.43
2022-12-04T05:47:50.522Z,11.77
2022-12-04T05:50:17.124Z,14.43
2022-12-04T05:52:43.697Z,13.73
2022-12-04T05:55:10.210Z,12.55
2022-12-04T05:57:36.693Z,14.32
2022-12-04T06:00:04.731Z,13.05
2022-12-04T06:02:31.362Z,11.40
2022-12-04T06:04:57.907Z,11.30
2022-12-04T06:07:24.437Z,12.68
2022-12-04T06:09:50.910Z,11.82
2022-12-04T06:12:17.384Z,13.40
2022-12-04T06:14:43.908Z,12.43
2022-12-04T06:17:10.395Z,11.20
2022-12-04T06:19:36.928Z,11.88
2022-12-04T06:22:03.711Z,11.55
2022-12-04T06:24:30.255Z,13.93
2022-12-04T06:27:26.315Z,14.18
2022-12-04T10:50:44.176Z,13.30
2022-12-04T10:53:15.000Z,13.35
2022-12-04T10:55:41.541Z,11.35
2022-12-04T10:58:20.520Z,10.85
2022-12-04T11:01:08.140Z,10.63
2022-12-04T11:03:35.549Z,13.77
2022-12-04T11:06:05.180Z,11.93
2022-12-04T11:08:44.697Z,11.32
2022-12-04T11:11:14.299Z,9.98
2022-12-04T11:13:41.902Z,10.95
2022-12-04T11:16:08.885Z,10.23
2022-12-04T11:18:47.737Z,10.50
2022-12-04T11:21:17.559Z,11.77
2022-12-04T11:23:47.318Z,10.10
2022-12-04T11:26:15.236Z,11.55
2022-12-04T11:28:51.907Z,13.30
2022-12-04T11:31:21.974Z,11.75
2022-12-04T11:33:52.296Z,10.32
2022-12-04T11:36:23.508Z,9.73
2022-12-04T11:38:52.012Z,13.00
2022-12-04T11:41:30.667Z,10.65
2022-12-04T11:44:00.555Z,11.05
2022-12-04T11:46:30.734Z,10.93
2022-12-04T11:48:57.646Z,8.38
2022-12-04T11:51:41.766Z,9.85
2022-12-04T11:54:20.477Z,8.45
2022-12-04T11:56:55.324Z,9.23
2022-12-04T11:59:47.791Z,8.65
2022-12-04T12:02:30.915Z,10.80
2022-12-04T12:05:04.069Z,8.48
2022-12-04T12:07:39.508Z,8.35
2022-12-04T12:10:21.880Z,10.95
2022-12-04T12:13:12.993Z,9.85
2022-12-04T12:16:09.687Z,9.45
2022-12-04T12:18:49.636Z,9.45
2022-12-04T12:21:27.800Z,8.52
2022-12-04T12:24:06.676Z,8.13
2022-12-04T12:27:04.041Z,8.85
2022-12-04T12:29:59.832Z,9.48
2022-12-04T12:32:47.190Z,8.05
2022-12-04T12:35:27.191Z,8.02
2022-12-04T12:37:56.169Z,8.15
2022-12-04T12:40:41.325Z,9.02
2022-12-04T12:43:16.186Z,8.38
2022-12-04T12:45:58.280Z,9.10
2022-12-04T12:48:32.461Z,8.80
2022-12-04T12:51:29.193Z,7.55
2022-12-04T12:53:58.512Z,8.13
2022-12-04T12:56:44.785Z,6.90
2022-12-04T12:59:20.963Z,7.85
2022-12-04T13:02:00.319Z,6.28
2022-12-04T13:04:38.610Z,8.13
2022-12-04T13:07:23.851Z,6.82
2022-12-04T13:10:05.037Z,8.30
2022-12-04T13:12:59.972Z,8.07
2022-12-04T13:15:39.019Z,7.15
2022-12-04T13:18:07.624Z,8.60
2022-12-04T13:20:42.542Z,8.73
2022-12-04T13:23:33.587Z,8.00
2022-12-04T13:26:15.175Z,8.48
2022-12-04T13:29:01.511Z,8.60
2022-12-04T13:34:49.929Z,9.32
2022-12-04T13:37:33.564Z,6.75
2022-12-04T13:40:24.372Z,10.20
2022-12-04T13:42:51.088Z,8.23
2022-12-04T13:45:35.516Z,8.70
2022-12-04T13:48:04.033Z,8.05
2022-12-04T13:50:33.535Z,5.40
2022-12-04T13:53:00.984Z,6.30
2022-12-04T13:55:33.322Z,6.55
2022-12-04T13:58:03.663Z,6.93
2022-12-04T14:00:35.666Z,6.30
2022-12-04T14:03:28.240Z,7.30
2022-12-04T14:05:54.871Z,5.95
2022-12-04T14:08:25.309Z,6.30
2022-12-04T14:11:00.732Z,7.03
2022-12-04T14:13:47.087Z,6.50
2022-12-04T14:19:03.430Z,6.68
2022-12-04T14:21:44.456Z,7.05
2022-12-04T14:24:29.397Z,6.75
2022-12-04T14:27:11.219Z,5.25
2022-12-04T14:29:49.503Z,6.90
2022-12-04T14:32:23.745Z,6.57
2022-12-04T14:34:50.835Z,7.45
2022-12-04T14:37:40.736Z,6.60
2022-12-04T14:40:15.922Z,5.60
2022-12-04T14:42:42.581Z,5.53
2022-12-04T14:45:38.703Z,6.35
2022-12-04T14:48:35.756Z,7.50
2022-12-04T14:51:19.813Z,7.13
2022-12-04T14:54:03.857Z,7.53
2022-12-04T14:56:44.508Z,6.70
2022-12-04T14:59:22.648Z,6.65
2022-12-04T15:01:51.299Z,6.70
2022-12-04T15:04:25.788Z,6.93
2022-12-04T15:06:59.745Z,6.45
2022-12-04T15:09:46.146Z,6.72
2022-12-04T15:12:33.548Z,8.32
2022-12-04T15:15:32.380Z,8.98
2022-12-04T15:18:15.051Z,7.53
2022-12-04T15:20:51.226Z,7.55
2022-12-04T15:23:41.589Z,6.38
2022-12-04T15:26:13.072Z,7.28
2022-12-04T15:28:50.351Z,6.63
2022-12-04T15:31:38.085Z,6.22
2022-12-04T15:34:09.480Z,9.65
2022-12-04T15:36:50.764Z,5.75
2022-12-04T15:39:21.491Z,6.25
2022-12-04T15:41:48.553Z,6.70
2022-12-04T15:44:50.542Z,8.70
2022-12-04T15:47:21.175Z,8.95
2022-12-04T16:02:39.931Z,7.18
2022-12-04T16:05:21.725Z,8.05
2022-12-04T16:08:00.789Z,6.78
2022-12-04T16:10:31.611Z,6.00
2022-12-04T16:13:04.341Z,7.60
2022-12-04T16:15:39.178Z,9.52
2022-12-04T16:18:07.965Z,9.05
2022-12-04T16:20:35.975Z,7.53
2022-12-04T16:23:03.276Z,8.52
2022-12-04T16:25:32.628Z,8.38
2022-12-04T16:28:00.046Z,7.60
2022-12-04T16:30:27.947Z,9.27
2022-12-04T16:32:54.563Z,8.40
2022-12-04T16:35:21.132Z,9.60
2022-12-04T16:37:47.650Z,7.00
2022-12-04T16:40:17.675Z,8.50
2022-12-04T16:42:44.359Z,9.25
2022-12-04T16:45:25.385Z,8.52
2022-12-04T16:47:52.932Z,8.23
2022-12-04T16:50:19.485Z,8.45
2022-12-04T16:52:46.248Z,8.98
2022-12-04T16:55:18.935Z,7.35
2022-12-04T16:57:45.636Z,9.23
2022-12-04T17:00:17.349Z,5.50
2022-12-04T17:02:45.130Z,5.25
2022-12-04T17:05:24.704Z,7.75
2022-12-04T17:07:51.407Z,6.50
2022-12-04T17:10:23.575Z,5.20
2022-12-04T17:12:53.542Z,6.90
2022-12-04T17:15:20.125Z,6.88
2022-12-04T17:17:46.606Z,8.48
2022-12-04T17:20:16.160Z,5.68
2022-12-04T17:22:43.034Z,5.85
2022-12-04T17:25:10.262Z,6.47
2022-12-04T17:27:36.975Z,7.07
2022-12-04T17:30:05.388Z,5.82
2022-12-04T17:32:32.625Z,6.43
2022-12-04T17:34:59.477Z,6.70
2022-12-04T17:37:26.129Z,6.20
2022-12-04T17:39:52.667Z,7.47
2022-12-04T17:42:20.154Z,6.00
2022-12-04T17:44:46.662Z,6.45
2022-12-04T17:47:13.284Z,5.50
2022-12-04T17:49:39.889Z,6.00
2022-12-04T17:52:06.640Z,6.65
2022-12-04T17:54:33.459Z,5.25
2022-12-04T17:57:00.081Z,6.22
2022-12-04T17:59:26.595Z,5.07
2022-12-04T18:01:53.148Z,6.63
2022-12-04T18:04:20.631Z,5.65
2022-12-04T18:06:47.191Z,5.18
2022-12-04T18:09:15.810Z,5.05
2022-12-04T18:11:45.007Z,4.45
2022-12-04T18:14:14.566Z,6.18
2022-12-04T18:16:46.675Z,6.20
2022-12-04T18:19:14.236Z,5.38
2022-12-04T18:21:41.262Z,5.22
2022-12-04T18:24:07.868Z,4.38
2022-12-04T18:26:39.961Z,4.78
2022-12-04T18:29:11.071Z,5.95
2022-12-04T18:31:37.587Z,6.32
2022-12-04T18:34:08.309Z,6.47
2022-12-04T18:36:35.937Z,5.80
2022-12-04T18:39:07.144Z,6.85
2022-12-04T18:41:34.240Z,5.95
2022-12-04T18:44:02.411Z,8.63
2022-12-04T18:46:29.560Z,6.78
2022-12-04T18:49:01.191Z,5.45
2022-12-04T18:51:33.597Z,8.38
2022-12-04T18:54:15.032Z,6.75
2022-12-04T18:56:42.044Z,9.05
2022-12-04T18:59:12.836Z,6.65
2022-12-04T19:01:40.928Z,8.35
2022-12-04T19:04:09.436Z,6.28
2022-12-04T19:06:39.428Z,7.13
2022-12-04T19:09:09.317Z,6.28
2022-12-04T19:11:36.034Z,8.27
2022-12-04T19:14:08.292Z,6.85
2022-12-04T19:16:39.324Z,7.53
2022-12-04T19:19:05.923Z,5.35
2022-12-04T19:21:33.464Z,5.97
2022-12-04T19:24:00.823Z,6.78
2022-12-04T19:26:30.276Z,4.97
2022-12-04T19:28:57.758Z,6.78
2022-12-04T19:31:29.868Z,4.78
2022-12-04T19:33:57.900Z,7.13
2022-12-04T19:36:26.516Z,7.65
2022-12-04T19:38:55.913Z,5.45
2022-12-04T19:41:24.314Z,6.28
2022-12-04T19:43:54.770Z,6.35
2022-12-04T19:46:23.060Z,5.32
2022-12-04T19:48:50.326Z,5.90
2022-12-04T19:51:20.242Z,5.10
2022-12-04T19:53:48.060Z,6.85
2022-12-04T19:56:16.888Z,5.55
2022-12-04T19:58:43.667Z,8.85
2022-12-04T20:01:15.954Z,4.55
2022-12-04T20:03:42.777Z,7.85
2022-12-04T20:06:12.127Z,5.78
2022-12-04T20:08:38.815Z,6.10
2022-12-04T20:11:07.803Z,5.95
2022-12-04T20:13:38.177Z,4.35
2022-12-04T20:16:06.931Z,4.68
2022-12-04T20:18:34.295Z,4.97
2022-12-04T20:21:01.642Z,5.07
2022-12-04T20:23:28.887Z,6.47
2022-12-04T20:25:55.400Z,5.95
2022-12-04T20:28:22.431Z,4.35
2022-12-04T20:30:49.884Z,5.07
2022-12-04T20:33:16.573Z,5.57
2022-12-04T20:35:43.106Z,4.30
2022-12-04T20:38:09.665Z,6.32
2022-12-04T20:40:36.216Z,4.85
2022-12-04T20:43:02.835Z,5.82
2022-12-04T20:45:30.467Z,4.57
2022-12-04T20:47:57.259Z,5.22
2022-12-04T20:50:23.769Z,4.30
2022-12-04T20:52:50.276Z,3.60
2022-12-04T20:55:16.810Z,3.70
2022-12-04T20:57:43.307Z,2.92
2022-12-04T21:00:10.312Z,4.57
2022-12-04T21:02:36.903Z,4.38
2022-12-04T21:05:03.463Z,4.95
2022-12-04T21:07:30.009Z,3.55
2022-12-04T21:09:58.347Z,5.43
2022-12-04T21:12:43.608Z,4.70
2022-12-04T21:15:29.159Z,4.88
2022-12-04T21:17:55.636Z,5.80
2022-12-04T21:20:22.149Z,4.05
2022-12-04T21:22:48.644Z,3.88
2022-12-04T21:25:15.406Z,3.35
2022-12-04T21:27:41.891Z,4.30
2022-12-04T21:30:09.028Z,6.43
2022-12-04T21:32:35.586Z,3.85
2022-12-04T21:35:02.124Z,3.88
2022-12-04T21:37:28.653Z,4.40
2022-12-04T21:39:55.427Z,4.32
2022-12-04T21:42:30.889Z,3.20
2022-12-04T21:44:58.532Z,4.95
2022-12-04T21:47:26.513Z,4.38
2022-12-04T21:49:53.092Z,5.15
2022-12-04T21:52:19.929Z,3.72
2022-12-04T21:54:51.676Z,3.70
2022-12-04T21:57:19.317Z,5.40
2022-12-04T21:59:45.920Z,3.17
2022-12-04T22:02:13.886Z,4.68
2022-12-04T22:04:41.307Z,3.97
2022-12-04T22:07:08.000Z,4.75
